Canyon Dam, California
Current Conditions -  °F | °C
As of 1:15 AM on Wednesday 28 Jan 2015 (Local Time) from KCIC Reporting Station
Few Clouds Few Clouds  
Wind Chill: 44°   Ceiling: Unl
Heat Index: 46°   Visibility: 10mi
Dew Point: 46°   Wind: 5mph
Humidity: 100%   Direction: 320°NW
Pressure: 30.28"   Gusts: NA
Location:  40.2035°N, 121.147°W
Report Text: KCIC 280915Z AUTO 32004KT 10SM FEW120 08/08 A3028 RMK AO1
Loading
Personal Weather Stations






























Interactive Weather Map New forecast layout! Learn more

10-Day Weather Forecast

Advertisements
Track Severe Weather on mobile